createdAt,value
2019-02-10T00:00:19.747Z,1002.55
2019-02-10T00:01:19.738Z,1002.50
2019-02-10T00:02:19.772Z,1002.48
2019-02-10T00:03:19.717Z,1002.51
2019-02-10T00:04:19.708Z,1002.43
2019-02-10T00:05:19.699Z,1002.46
2019-02-10T00:06:24.845Z,1002.43
2019-02-10T00:07:20.711Z,1002.42
2019-02-10T00:08:19.662Z,1002.46
2019-02-10T00:09:19.672Z,1002.41
2019-02-10T00:10:19.658Z,1002.40
2019-02-10T00:11:19.625Z,1002.39
2019-02-10T00:12:19.619Z,1002.31
2019-02-10T00:13:20.399Z,1002.22
2019-02-10T00:14:19.600Z,1002.30
2019-02-10T00:15:19.597Z,1002.27
2019-02-10T00:16:19.600Z,1002.20
2019-02-10T00:17:19.560Z,1002.15
2019-02-10T00:18:19.595Z,1002.19
2019-02-10T00:19:19.593Z,1002.12
2019-02-10T00:20:19.531Z,1002.11
2019-02-10T00:21:19.514Z,1002.06
2019-02-10T00:22:19.517Z,1002.07
2019-02-10T00:23:19.495Z,1002.05
2019-02-10T00:24:19.505Z,1002.04
2019-02-10T00:25:19.478Z,1002.01
2019-02-10T00:26:19.533Z,1002.00
2019-02-10T00:27:19.451Z,1001.99
2019-02-10T00:28:19.439Z,1001.99
2019-02-10T00:29:19.455Z,1001.86
2019-02-10T00:30:19.418Z,1001.83
2019-02-10T00:31:19.408Z,1001.81
2019-02-10T00:32:19.397Z,1001.83
2019-02-10T00:33:19.379Z,1001.83
2019-02-10T00:34:19.400Z,1001.77
2019-02-10T00:35:19.485Z,1001.73
2019-02-10T00:36:19.367Z,1001.69
2019-02-10T00:37:19.341Z,1001.72
2019-02-10T00:38:19.348Z,1001.67
2019-02-10T00:39:19.316Z,1001.62
2019-02-10T00:40:19.334Z,1001.58
2019-02-10T00:41:19.296Z,1001.59
2019-02-10T00:42:19.282Z,1001.55
2019-02-10T00:43:19.279Z,1001.54
2019-02-10T00:44:19.264Z,1001.53
2019-02-10T00:45:19.268Z,1001.49
2019-02-10T00:46:19.265Z,1001.44
2019-02-10T00:47:19.224Z,1001.43
2019-02-10T00:48:19.215Z,1001.37
2019-02-10T00:49:19.208Z,1001.36
2019-02-10T00:50:19.189Z,1001.30
2019-02-10T00:51:19.270Z,1001.29
2019-02-10T00:52:19.181Z,1001.31
2019-02-10T00:53:19.162Z,1001.25
2019-02-10T00:54:19.152Z,1001.32
2019-02-10T00:55:19.143Z,1001.24
2019-02-10T00:56:19.136Z,1001.22
2019-02-10T00:57:19.140Z,1001.17
2019-02-10T00:58:19.104Z,1001.20
2019-02-10T00:59:19.130Z,1001.16
2019-02-10T01:00:19.091Z,1001.12
2019-02-10T01:01:19.071Z,1001.12
2019-02-10T01:02:19.092Z,1001.10
2019-02-10T01:03:19.096Z,1001.03
2019-02-10T01:04:19.044Z,1000.99
2019-02-10T01:05:19.035Z,1001.00
2019-02-10T01:06:19.025Z,1000.94
2019-02-10T01:07:19.013Z,1000.90
2019-02-10T01:08:19.041Z,1000.84
2019-02-10T01:09:18.989Z,1000.82
2019-02-10T01:10:18.976Z,1000.79
2019-02-10T01:11:19.909Z,1000.76
2019-02-10T01:12:18.952Z,1000.78
2019-02-10T01:13:18.969Z,1000.63
2019-02-10T01:14:18.960Z,1000.70
2019-02-10T01:15:19.038Z,1000.70
2019-02-10T01:16:18.937Z,1000.69
2019-02-10T01:17:18.906Z,1000.64
2019-02-10T01:18:18.887Z,1000.60
2019-02-10T01:19:18.891Z,1000.60
2019-02-10T01:20:18.866Z,1000.61
2019-02-10T01:21:18.894Z,1000.58
2019-02-10T01:22:18.850Z,1000.54
2019-02-10T01:23:18.828Z,1000.52
2019-02-10T01:24:18.817Z,1000.51
2019-02-10T01:25:18.802Z,1000.53
2019-02-10T01:26:18.796Z,1000.48
2019-02-10T01:27:18.817Z,1000.46
2019-02-10T01:28:18.783Z,1000.44
2019-02-10T01:29:18.767Z,1000.41
2019-02-10T01:30:18.769Z,1000.39
2019-02-10T01:31:18.833Z,1000.36
2019-02-10T01:32:18.747Z,1000.33
2019-02-10T01:33:18.770Z,1000.32
2019-02-10T01:34:18.714Z,1000.33
2019-02-10T01:35:18.689Z,1000.25
2019-02-10T01:36:18.683Z,1000.29
2019-02-10T01:37:18.678Z,1000.20
2019-02-10T01:38:18.656Z,1000.23
2019-02-10T01:39:18.670Z,1000.19
2019-02-10T01:40:19.405Z,1000.13
2019-02-10T01:41:18.629Z,1000.05
2019-02-10T01:42:18.617Z,1000.06
2019-02-10T01:43:18.628Z,1000.09
2019-02-10T01:44:18.621Z,1000.09
2019-02-10T01:45:18.595Z,1000.01
2019-02-10T01:46:18.598Z,999.97
2019-02-10T01:47:18.562Z,999.96
2019-02-10T01:48:18.557Z,999.94
2019-02-10T01:49:18.563Z,999.88
2019-02-10T01:50:18.532Z,999.87
2019-02-10T01:51:18.516Z,999.85
2019-02-10T01:52:18.505Z,999.79
2019-02-10T01:53:18.502Z,999.77
2019-02-10T01:54:18.484Z,999.69
2019-02-10T01:55:18.588Z,999.69
2019-02-10T01:56:18.458Z,999.73
2019-02-10T01:57:18.446Z,999.69
2019-02-10T01:58:18.443Z,999.60
2019-02-10T01:59:18.427Z,999.60
2019-02-10T02:00:18.438Z,999.56
2019-02-10T02:01:18.401Z,999.39
2019-02-10T02:02:18.395Z,999.41
2019-02-10T02:03:18.379Z,999.29
2019-02-10T02:04:18.375Z,999.24
2019-02-10T02:05:18.361Z,999.29
2019-02-10T02:06:18.377Z,999.19
2019-02-10T02:07:18.361Z,999.16
2019-02-10T02:08:18.322Z,999.13
2019-02-10T02:09:18.311Z,999.15
2019-02-10T02:10:18.304Z,999.12
2019-02-10T02:11:18.385Z,999.12
2019-02-10T02:12:18.314Z,999.04
2019-02-10T02:13:18.283Z,998.91
2019-02-10T02:14:18.254Z,998.82
2019-02-10T02:15:18.253Z,998.83
2019-02-10T02:16:18.243Z,998.82
2019-02-10T02:17:18.223Z,998.79
2019-02-10T02:18:18.235Z,998.75
2019-02-10T02:19:18.205Z,998.75
2019-02-10T02:20:18.193Z,998.77
2019-02-10T02:21:18.184Z,998.72
2019-02-10T02:22:18.164Z,998.68
2019-02-10T02:23:18.192Z,998.67
2019-02-10T02:24:18.148Z,998.59
2019-02-10T02:25:18.138Z,998.54
2019-02-10T02:26:18.130Z,998.60
2019-02-10T02:27:18.166Z,998.58
2019-02-10T02:28:18.106Z,998.53
2019-02-10T02:29:18.125Z,998.51
2019-02-10T02:30:18.108Z,998.51
2019-02-10T02:31:18.070Z,998.47
2019-02-10T02:32:18.061Z,998.48
2019-02-10T02:33:18.073Z,998.41
2019-02-10T02:34:18.037Z,998.42
2019-02-10T02:35:18.130Z,998.41
2019-02-10T02:36:18.003Z,998.35
2019-02-10T02:37:17.997Z,998.32
2019-02-10T02:38:18.045Z,998.32
2019-02-10T02:39:18.037Z,998.29
2019-02-10T02:40:17.968Z,998.33
2019-02-10T02:41:17.975Z,998.22
2019-02-10T02:42:17.965Z,998.24
2019-02-10T02:43:17.931Z,998.17
2019-02-10T02:44:17.921Z,998.15
2019-02-10T02:45:17.933Z,998.16
2019-02-10T02:46:17.900Z,998.13
2019-02-10T02:47:17.892Z,998.09
2019-02-10T02:48:17.880Z,998.07
2019-02-10T02:49:17.870Z,998.08
2019-02-10T02:50:17.859Z,998.03
2019-02-10T02:51:17.986Z,997.99
2019-02-10T02:52:17.871Z,997.92
2019-02-10T02:53:17.870Z,997.82
2019-02-10T02:54:17.936Z,997.83
2019-02-10T02:55:17.804Z,997.87
2019-02-10T02:56:17.814Z,997.80
2019-02-10T02:57:17.812Z,997.80
2019-02-10T02:58:17.770Z,997.74
2019-02-10T02:59:17.765Z,997.73
2019-02-10T03:00:17.740Z,997.65
2019-02-10T03:01:17.734Z,997.66
2019-02-10T03:02:17.745Z,997.59
2019-02-10T03:03:17.731Z,997.59
2019-02-10T03:04:17.698Z,997.53
2019-02-10T03:05:17.739Z,997.52
2019-02-10T03:06:17.682Z,997.46
2019-02-10T03:07:18.405Z,997.43
2019-02-10T03:08:17.657Z,997.53
2019-02-10T03:09:17.640Z,997.39
2019-02-10T03:10:17.629Z,997.32
2019-02-10T03:11:17.623Z,997.30
2019-02-10T03:12:17.613Z,997.29
2019-02-10T03:13:17.615Z,997.27
2019-02-10T03:14:17.616Z,997.23
2019-02-10T03:15:17.580Z,997.13
2019-02-10T03:16:17.568Z,997.07
2019-02-10T03:17:17.548Z,997.10
2019-02-10T03:18:17.571Z,997.06
2019-02-10T03:19:17.528Z,997.05
2019-02-10T03:20:17.517Z,997.03
2019-02-10T03:21:17.506Z,996.93
2019-02-10T03:22:17.507Z,996.89
2019-02-10T03:23:17.594Z,996.87
2019-02-10T03:24:17.499Z,996.85
2019-02-10T03:25:17.489Z,996.73
2019-02-10T03:26:17.454Z,996.75
2019-02-10T03:27:17.442Z,996.67
2019-02-10T03:28:17.433Z,996.66
2019-02-10T03:29:17.415Z,996.66
2019-02-10T03:30:17.407Z,996.60
2019-02-10T03:31:17.551Z,996.57
2019-02-10T03:32:17.380Z,996.52
2019-02-10T03:33:17.376Z,996.52
2019-02-10T03:34:17.364Z,996.47
2019-02-10T03:35:17.364Z,996.43
2019-02-10T03:36:17.345Z,996.38
2019-02-10T03:37:17.352Z,996.35
2019-02-10T03:38:17.316Z,996.31
2019-02-10T03:39:17.306Z,996.25
2019-02-10T03:40:17.303Z,996.20
2019-02-10T03:41:17.289Z,996.19
2019-02-10T03:42:17.274Z,996.08
2019-02-10T03:43:17.284Z,996.12
2019-02-10T03:44:17.380Z,996.01
2019-02-10T03:45:17.254Z,995.93
2019-02-10T03:46:17.233Z,995.88
2019-02-10T03:47:17.346Z,995.75
2019-02-10T03:48:17.275Z,995.69
2019-02-10T03:49:17.245Z,995.64
2019-02-10T03:50:17.182Z,995.67
2019-02-10T03:51:17.183Z,995.58
2019-02-10T03:52:17.181Z,995.55
2019-02-10T03:53:17.167Z,995.51
2019-02-10T03:54:17.173Z,995.50
2019-02-10T03:55:17.154Z,995.42
2019-02-10T03:56:17.119Z,995.38
2019-02-10T03:57:17.102Z,995.28
2019-02-10T03:58:17.107Z,995.24
2019-02-10T03:59:17.108Z,995.15
2019-02-10T04:00:17.071Z,995.18
2019-02-10T04:01:17.063Z,995.15
2019-02-10T04:02:17.050Z,995.16
2019-02-10T04:03:17.058Z,995.12
2019-02-10T04:04:17.074Z,995.11
2019-02-10T04:05:17.015Z,995.05
2019-02-10T04:06:17.041Z,995.08
2019-02-10T04:07:16.995Z,994.99
2019-02-10T04:08:17.011Z,994.97
2019-02-10T04:09:16.973Z,994.98
2019-02-10T04:10:16.961Z,994.87
2019-02-10T04:11:16.951Z,994.84
2019-02-10T04:12:16.941Z,994.76
2019-02-10T04:13:16.935Z,994.79
2019-02-10T04:14:16.935Z,994.79
2019-02-10T04:15:16.907Z,994.81
2019-02-10T04:16:16.891Z,994.81
2019-02-10T04:17:16.909Z,994.81
2019-02-10T04:18:16.870Z,994.69
2019-02-10T04:19:16.858Z,994.66
2019-02-10T04:20:16.852Z,994.64
2019-02-10T04:21:16.844Z,994.61
2019-02-10T04:22:16.848Z,994.57
2019-02-10T04:23:16.826Z,994.49
2019-02-10T04:24:16.802Z,994.52
2019-02-10T04:25:16.789Z,994.46
2019-02-10T04:26:16.788Z,994.38
2019-02-10T04:27:17.436Z,994.35
2019-02-10T04:28:16.795Z,994.40
2019-02-10T04:29:16.750Z,994.25
2019-02-10T04:30:16.744Z,994.27
2019-02-10T04:31:16.739Z,994.22
2019-02-10T04:32:16.738Z,994.26
2019-02-10T04:33:16.730Z,994.25
2019-02-10T04:34:16.690Z,994.27
2019-02-10T04:35:16.682Z,994.16
2019-02-10T04:36:16.673Z,994.19
2019-02-10T04:37:16.676Z,994.16
2019-02-10T04:38:16.703Z,994.14
2019-02-10T04:39:16.683Z,994.05
2019-02-10T04:40:16.644Z,994.01
2019-02-10T04:41:16.612Z,994.03
2019-02-10T04:42:16.655Z,993.98
2019-02-10T04:43:16.660Z,993.74
2019-02-10T04:44:16.597Z,993.69
2019-02-10T04:45:16.599Z,993.70
2019-02-10T04:46:16.564Z,993.59
2019-02-10T04:47:16.546Z,993.56
2019-02-10T04:48:16.537Z,993.53
2019-02-10T04:49:16.532Z,993.56
2019-02-10T04:50:17.451Z,993.46
2019-02-10T04:51:16.543Z,993.37
2019-02-10T04:52:17.440Z,993.39
2019-02-10T04:53:16.489Z,993.42
2019-02-10T04:54:16.478Z,993.25
2019-02-10T04:55:16.467Z,993.23
2019-02-10T04:56:16.480Z,993.10
2019-02-10T04:57:16.439Z,993.14
2019-02-10T04:58:16.425Z,993.10
2019-02-10T04:59:16.469Z,993.08
2019-02-10T05:00:16.433Z,992.98
2019-02-10T05:01:16.415Z,992.97
2019-02-10T05:02:16.410Z,992.91
2019-02-10T05:03:16.387Z,992.93
2019-02-10T05:04:16.405Z,992.82
2019-02-10T05:05:16.353Z,992.79
2019-02-10T05:06:16.366Z,992.80
2019-02-10T05:07:16.338Z,992.81
2019-02-10T05:08:16.321Z,992.64
2019-02-10T05:09:16.306Z,992.69
2019-02-10T05:10:16.408Z,992.56
2019-02-10T05:11:16.285Z,992.55
2019-02-10T05:12:16.298Z,992.46
2019-02-10T05:13:16.262Z,992.41
2019-02-10T05:14:16.249Z,992.37
2019-02-10T05:15:16.243Z,992.36
2019-02-10T05:16:16.229Z,992.32
2019-02-10T05:17:16.227Z,992.26
2019-02-10T05:18:16.238Z,992.22
2019-02-10T05:19:16.226Z,992.13
2019-02-10T05:20:16.183Z,992.13
2019-02-10T05:21:16.175Z,992.15
2019-02-10T05:22:16.162Z,992.21
2019-02-10T05:23:16.153Z,992.11
2019-02-10T05:24:16.156Z,992.03
2019-02-10T05:25:16.142Z,992.02
2019-02-10T05:26:16.217Z,992.02
2019-02-10T05:27:16.106Z,991.82
2019-02-10T05:28:16.095Z,991.93
2019-02-10T05:29:16.121Z,991.90
2019-02-10T05:30:16.070Z,991.88
2019-02-10T05:31:16.068Z,991.80
2019-02-10T05:32:16.072Z,991.91
2019-02-10T05:33:16.037Z,991.74
2019-02-10T05:34:16.030Z,991.76
2019-02-10T05:35:16.047Z,991.70
2019-02-10T05:36:16.003Z,991.71
2019-02-10T05:37:15.996Z,991.59
2019-02-10T05:38:15.981Z,991.63
2019-02-10T05:39:16.266Z,991.53
2019-02-10T05:40:15.965Z,991.59
2019-02-10T05:41:15.945Z,991.51
2019-02-10T05:42:15.958Z,991.42
2019-02-10T05:43:15.933Z,991.51
2019-02-10T05:44:15.959Z,991.50
2019-02-10T05:45:15.908Z,991.47
2019-02-10T05:46:15.915Z,991.43
2019-02-10T05:47:15.907Z,991.44
2019-02-10T05:48:15.869Z,991.44
2019-02-10T05:49:15.870Z,991.46
2019-02-10T05:50:15.956Z,991.38
2019-02-10T05:51:15.843Z,991.32
2019-02-10T05:52:15.853Z,991.27
2019-02-10T05:53:15.868Z,991.24
2019-02-10T05:54:15.804Z,991.22
2019-02-10T05:55:15.794Z,991.12
2019-02-10T05:56:15.781Z,991.14
2019-02-10T05:57:15.777Z,991.10
2019-02-10T05:58:15.789Z,991.18
2019-02-10T05:59:15.755Z,991.14
2019-02-10T06:00:15.744Z,991.08
2019-02-10T06:01:15.724Z,991.04
2019-02-10T06:02:15.726Z,990.96
2019-02-10T06:03:16.454Z,991.00
2019-02-10T06:04:15.693Z,990.94
2019-02-10T06:05:15.678Z,990.93
2019-02-10T06:06:15.773Z,990.91
2019-02-10T06:07:16.595Z,990.92
2019-02-10T06:08:15.679Z,990.78
2019-02-10T06:09:15.672Z,990.77
2019-02-10T06:10:15.671Z,990.75
2019-02-10T06:11:15.614Z,990.79
2019-02-10T06:12:15.604Z,990.78
2019-02-10T06:13:15.596Z,990.68
2019-02-10T06:14:15.576Z,990.67
2019-02-10T06:15:15.605Z,990.65
2019-02-10T06:16:15.556Z,990.66
2019-02-10T06:17:15.549Z,990.57
2019-02-10T06:18:15.535Z,990.53
2019-02-10T06:19:15.526Z,990.53
2019-02-10T06:20:15.542Z,990.45
2019-02-10T06:21:15.504Z,990.45
2019-02-10T06:22:15.555Z,990.53
2019-02-10T06:23:15.478Z,990.45
2019-02-10T06:24:15.469Z,990.40
2019-02-10T06:25:15.492Z,990.32
2019-02-10T06:26:15.471Z,990.41
2019-02-10T06:27:16.468Z,990.32
2019-02-10T06:28:15.426Z,990.35
2019-02-10T06:29:15.417Z,990.19
2019-02-10T06:30:15.437Z,990.28
2019-02-10T06:31:15.404Z,990.15
2019-02-10T06:32:15.389Z,990.04
2019-02-10T06:33:15.383Z,990.13
2019-02-10T06:34:15.367Z,990.15
2019-02-10T06:35:15.349Z,990.17
2019-02-10T06:36:16.741Z,990.10
2019-02-10T06:37:15.323Z,990.06
2019-02-10T06:38:22.199Z,990.05
2019-02-10T06:39:16.317Z,990.06
2019-02-10T06:40:15.292Z,989.94
2019-02-10T06:41:15.291Z,989.95
2019-02-10T06:42:15.267Z,989.98
2019-02-10T06:43:15.315Z,989.91
2019-02-10T06:44:15.248Z,989.91
2019-02-10T06:45:15.257Z,989.82
2019-02-10T06:46:15.372Z,989.68
2019-02-10T06:47:15.237Z,989.67
2019-02-10T06:48:15.203Z,989.65
2019-02-10T06:49:15.235Z,989.55
2019-02-10T06:50:15.180Z,989.52
2019-02-10T06:51:15.199Z,989.54
2019-02-10T06:52:15.155Z,989.35
2019-02-10T06:53:15.171Z,989.22
2019-02-10T06:54:15.177Z,989.29
2019-02-10T06:55:16.982Z,989.13
2019-02-10T06:56:15.117Z,989.11
2019-02-10T06:57:15.106Z,989.11
2019-02-10T06:58:15.116Z,989.05
2019-02-10T06:59:16.007Z,989.01
2019-02-10T07:00:15.113Z,988.99
2019-02-10T07:01:15.060Z,988.93
2019-02-10T07:02:15.127Z,988.94
2019-02-10T07:03:15.041Z,988.87
2019-02-10T07:04:15.046Z,988.94
2019-02-10T07:05:15.062Z,988.89
2019-02-10T07:06:15.023Z,988.82
2019-02-10T07:07:14.990Z,988.77
2019-02-10T07:08:14.995Z,988.87
2019-02-10T07:09:14.988Z,988.80
2019-02-10T07:10:14.973Z,988.78
2019-02-10T07:11:14.949Z,988.78
2019-02-10T07:12:14.957Z,988.85
2019-02-10T07:13:14.922Z,988.84
2019-02-10T07:14:14.912Z,988.80
2019-02-10T07:15:14.926Z,988.80
2019-02-10T07:16:14.892Z,988.66
2019-02-10T07:17:14.919Z,988.59
2019-02-10T07:18:14.886Z,988.54
2019-02-10T07:19:14.871Z,988.55
2019-02-10T07:20:14.845Z,988.56
2019-02-10T07:21:14.874Z,988.57
2019-02-10T07:22:14.825Z,988.76
2019-02-10T07:23:15.469Z,988.75
2019-02-10T07:24:14.844Z,988.65
2019-02-10T07:25:14.808Z,988.61
2019-02-10T07:26:14.965Z,988.59
2019-02-10T07:27:14.795Z,988.44
2019-02-10T07:28:14.788Z,988.41
2019-02-10T07:29:14.852Z,988.36
2019-02-10T07:30:14.730Z,988.34
2019-02-10T07:31:14.732Z,988.22
2019-02-10T07:32:14.746Z,988.29
2019-02-10T07:33:14.730Z,988.36
2019-02-10T07:34:14.694Z,988.27
2019-02-10T07:35:14.686Z,988.36
2019-02-10T07:36:14.669Z,988.31
2019-02-10T07:37:14.658Z,988.32
2019-02-10T07:38:14.641Z,988.37
2019-02-10T07:39:14.653Z,988.28
2019-02-10T07:40:14.621Z,988.21
2019-02-10T07:41:14.603Z,988.22
2019-02-10T07:42:14.614Z,988.23
2019-02-10T07:43:14.613Z,988.31
2019-02-10T07:44:14.598Z,988.25
2019-02-10T07:45:14.674Z,988.28
2019-02-10T07:46:14.555Z,988.27
2019-02-10T07:47:14.540Z,988.30
2019-02-10T07:48:15.473Z,988.24
2019-02-10T07:49:14.543Z,988.20
2019-02-10T07:50:14.507Z,988.19
2019-02-10T07:51:14.498Z,988.11
2019-02-10T07:52:14.493Z,988.16
2019-02-10T07:53:14.479Z,988.15
2019-02-10T07:54:14.495Z,988.10
2019-02-10T07:55:14.485Z,988.06
2019-02-10T07:56:14.444Z,988.00
2019-02-10T07:57:14.428Z,987.96
2019-02-10T07:58:14.422Z,988.12
2019-02-10T07:59:14.409Z,988.14
2019-02-10T08:00:14.419Z,988.14
2019-02-10T08:01:14.494Z,987.97
2019-02-10T08:02:14.376Z,987.93
2019-02-10T08:03:14.392Z,987.99
2019-02-10T08:04:14.387Z,988.15
2019-02-10T08:05:14.365Z,988.00
2019-02-10T08:06:14.328Z,988.03
2019-02-10T08:07:14.362Z,988.16
2019-02-10T08:08:14.305Z,988.14
2019-02-10T08:09:14.293Z,988.24
2019-02-10T08:10:14.301Z,988.26
2019-02-10T08:11:14.296Z,988.11
2019-02-10T08:12:14.277Z,988.11
2019-02-10T08:13:14.252Z,988.01
2019-02-10T08:14:14.237Z,988.04
2019-02-10T08:15:14.234Z,987.97
2019-02-10T08:16:14.217Z,988.01
2019-02-10T08:17:14.229Z,987.93
2019-02-10T08:18:14.225Z,988.05
2019-02-10T08:19:14.198Z,988.02
2019-02-10T08:20:14.177Z,987.99
2019-02-10T08:21:14.166Z,988.04
2019-02-10T08:22:14.212Z,988.01
2019-02-10T08:23:14.156Z,987.98
2019-02-10T08:24:14.162Z,987.96
2019-02-10T08:25:14.211Z,987.95
2019-02-10T08:26:14.132Z,987.86
2019-02-10T08:27:14.098Z,987.96
2019-02-10T08:28:14.168Z,987.84
2019-02-10T08:29:14.102Z,987.89
2019-02-10T08:30:14.112Z,987.78
2019-02-10T08:31:14.058Z,987.71
2019-02-10T08:32:14.103Z,987.69
2019-02-10T08:33:15.095Z,987.61
2019-02-10T08:34:14.026Z,987.67
2019-02-10T08:35:14.032Z,987.64
2019-02-10T08:36:14.014Z,987.58
2019-02-10T08:37:13.984Z,987.60
2019-02-10T08:38:14.058Z,987.67
2019-02-10T08:39:13.996Z,987.60
2019-02-10T08:40:13.980Z,987.49
2019-02-10T08:41:13.993Z,987.53
2019-02-10T08:42:13.934Z,987.54
2019-02-10T08:43:13.933Z,987.47
2019-02-10T08:44:14.469Z,987.48
2019-02-10T08:45:13.910Z,987.49
2019-02-10T08:46:13.928Z,987.36
2019-02-10T08:47:13.951Z,987.42
2019-02-10T08:48:13.867Z,987.39
2019-02-10T08:49:13.875Z,987.32
2019-02-10T08:50:13.875Z,987.31
2019-02-10T08:51:13.825Z,987.33
2019-02-10T08:52:13.852Z,987.22
2019-02-10T08:53:13.814Z,987.25
2019-02-10T08:54:13.803Z,987.29
2019-02-10T08:55:13.838Z,987.23
2019-02-10T08:56:13.787Z,987.28
2019-02-10T08:57:13.791Z,987.23
2019-02-10T08:58:13.770Z,987.36
2019-02-10T08:59:13.736Z,987.30
2019-02-10T09:00:13.753Z,987.34
2019-02-10T09:01:13.725Z,987.27
2019-02-10T09:02:13.716Z,987.30
2019-02-10T09:03:19.381Z,987.22
2019-02-10T09:04:14.695Z,987.05
2019-02-10T09:05:13.678Z,987.12
2019-02-10T09:06:13.669Z,987.15
2019-02-10T09:07:15.378Z,987.01
2019-02-10T09:08:13.690Z,987.08
2019-02-10T09:09:13.635Z,987.12
2019-02-10T09:10:13.715Z,987.09
2019-02-10T09:11:13.678Z,987.13
2019-02-10T09:12:13.614Z,987.07
2019-02-10T09:13:13.605Z,987.09
2019-02-10T09:14:13.601Z,986.99
2019-02-10T09:15:13.566Z,987.02
2019-02-10T09:16:13.558Z,987.02
2019-02-10T09:17:13.544Z,986.98
2019-02-10T09:18:13.523Z,986.91
2019-02-10T09:19:13.545Z,986.90
2019-02-10T09:20:13.503Z,986.82
2019-02-10T09:21:13.990Z,986.78
2019-02-10T09:22:13.480Z,986.91
2019-02-10T09:23:13.470Z,986.85
2019-02-10T09:24:13.484Z,986.94
2019-02-10T09:25:13.547Z,986.85
2019-02-10T09:26:13.442Z,986.81
2019-02-10T09:27:13.996Z,987.02
2019-02-10T09:28:13.411Z,986.98
2019-02-10T09:29:13.430Z,986.99
2019-02-10T09:30:13.533Z,986.88
2019-02-10T09:31:13.411Z,986.76
2019-02-10T09:32:13.374Z,986.78
2019-02-10T09:33:13.366Z,986.99
2019-02-10T09:34:13.343Z,986.97
2019-02-10T09:35:13.346Z,986.91
2019-02-10T09:36:13.323Z,986.97
2019-02-10T09:37:13.348Z,986.96
2019-02-10T09:38:13.311Z,986.92
2019-02-10T09:39:13.288Z,986.97
2019-02-10T09:40:13.284Z,986.87
2019-02-10T09:41:13.316Z,986.86
2019-02-10T09:42:13.262Z,986.87
2019-02-10T09:43:13.259Z,986.92
2019-02-10T09:44:13.261Z,986.83
2019-02-10T09:45:13.221Z,986.83
2019-02-10T09:46:14.035Z,986.80
2019-02-10T09:47:13.230Z,986.91
2019-02-10T09:48:13.224Z,986.84
2019-02-10T09:49:13.186Z,986.78
2019-02-10T09:50:13.203Z,986.72
2019-02-10T09:51:13.158Z,986.76
2019-02-10T09:52:13.173Z,986.86
2019-02-10T09:53:13.158Z,986.89
2019-02-10T09:54:13.124Z,986.79
2019-02-10T09:55:13.116Z,986.81
2019-02-10T09:56:13.098Z,986.83
2019-02-10T09:57:13.194Z,986.95
2019-02-10T09:58:13.071Z,986.90
2019-02-10T09:59:13.110Z,986.89
2019-02-10T10:00:14.005Z,986.87
2019-02-10T10:01:14.723Z,986.77
2019-02-10T10:02:13.032Z,986.85
2019-02-10T10:03:13.033Z,986.98
2019-02-10T10:04:13.012Z,986.87
2019-02-10T10:05:13.039Z,986.86
2019-02-10T10:06:13.559Z,986.86
2019-02-10T10:07:13.511Z,986.95
2019-02-10T10:08:12.967Z,986.85
2019-02-10T10:09:18.913Z,986.84
2019-02-10T10:10:14.016Z,986.83
2019-02-10T10:11:12.929Z,986.78
2019-02-10T10:12:12.923Z,986.76
2019-02-10T10:13:12.904Z,986.75
2019-02-10T10:14:12.904Z,986.75
2019-02-10T10:15:12.931Z,986.83
2019-02-10T10:16:12.877Z,986.77
2019-02-10T10:17:12.892Z,986.79
2019-02-10T10:18:12.851Z,986.66
2019-02-10T10:19:12.843Z,986.72
2019-02-10T10:20:12.839Z,986.72
2019-02-10T10:21:12.818Z,986.76
2019-02-10T10:22:12.819Z,986.79
2019-02-10T10:23:12.870Z,986.85
2019-02-10T10:24:12.832Z,986.82
2019-02-10T10:25:12.780Z,986.73
2019-02-10T10:26:12.766Z,986.72
2019-02-10T10:27:12.866Z,986.68
2019-02-10T10:28:12.740Z,986.73
2019-02-10T10:29:12.755Z,986.61
2019-02-10T10:30:12.721Z,986.61
2019-02-10T10:31:12.716Z,986.60
2019-02-10T10:32:12.693Z,986.56
2019-02-10T10:33:12.707Z,986.55
2019-02-10T10:34:12.689Z,986.60
2019-02-10T10:35:12.673Z,986.50
2019-02-10T10:36:12.658Z,986.51
2019-02-10T10:37:12.635Z,986.42
2019-02-10T10:38:12.629Z,986.38
2019-02-10T10:39:12.654Z,986.33
2019-02-10T10:40:12.612Z,986.29
2019-02-10T10:41:12.597Z,986.23
2019-02-10T10:42:12.587Z,986.29
2019-02-10T10:43:12.646Z,986.33
2019-02-10T10:44:12.610Z,986.32
2019-02-10T10:45:12.551Z,986.47
2019-02-10T10:46:12.604Z,986.43
2019-02-10T10:47:12.528Z,986.53
2019-02-10T10:48:12.531Z,986.48
2019-02-10T10:49:12.508Z,986.67
2019-02-10T10:50:12.494Z,986.56
2019-02-10T10:51:12.502Z,986.54
2019-02-10T10:52:12.515Z,986.55
2019-02-10T10:53:12.463Z,986.52
2019-02-10T10:54:12.459Z,986.59
2019-02-10T10:55:12.442Z,986.53
2019-02-10T10:56:12.494Z,986.51
2019-02-10T10:57:12.413Z,986.51
2019-02-10T10:58:12.409Z,986.47
2019-02-10T10:59:12.400Z,986.45
2019-02-10T11:00:12.385Z,986.57
2019-02-10T11:01:12.398Z,986.49
2019-02-10T11:02:12.356Z,986.45
2019-02-10T11:03:12.353Z,986.44
2019-02-10T11:04:12.344Z,986.42
2019-02-10T11:05:12.325Z,986.50
2019-02-10T11:06:12.325Z,986.46
2019-02-10T11:07:12.452Z,986.46
2019-02-10T11:08:12.291Z,986.49
2019-02-10T11:09:12.295Z,986.42
2019-02-10T11:10:12.277Z,986.37
2019-02-10T11:11:12.267Z,986.36
2019-02-10T11:12:12.271Z,986.32
2019-02-10T11:13:12.271Z,986.37
2019-02-10T11:14:12.255Z,986.33
2019-02-10T11:15:12.218Z,986.37
2019-02-10T11:16:12.210Z,986.32
2019-02-10T11:17:12.203Z,986.35
2019-02-10T11:18:12.216Z,986.37
2019-02-10T11:19:12.180Z,986.40
2019-02-10T11:20:12.155Z,986.42
2019-02-10T11:21:13.642Z,986.39
2019-02-10T11:22:12.146Z,986.24
2019-02-10T11:23:12.296Z,986.31
2019-02-10T11:24:12.144Z,986.33
2019-02-10T11:25:12.105Z,986.37
2019-02-10T11:26:12.122Z,986.39
2019-02-10T11:27:12.082Z,986.33
2019-02-10T11:28:12.099Z,986.33
2019-02-10T11:29:12.071Z,986.33
2019-02-10T11:30:12.071Z,986.28
2019-02-10T11:31:12.045Z,986.34
2019-02-10T11:32:12.028Z,986.18
2019-02-10T11:33:12.012Z,986.16
2019-02-10T11:34:12.001Z,986.23
2019-02-10T11:35:12.034Z,986.28
2019-02-10T11:36:11.977Z,986.33
2019-02-10T11:37:11.969Z,986.22
2019-02-10T11:38:11.958Z,986.28
2019-02-10T11:39:11.965Z,986.33
2019-02-10T11:40:12.518Z,986.28
2019-02-10T11:41:11.966Z,986.33
2019-02-10T11:42:11.943Z,986.31
2019-02-10T11:43:18.975Z,986.26
2019-02-10T11:44:11.893Z,986.25
2019-02-10T11:45:11.886Z,986.21
2019-02-10T11:46:12.557Z,986.25
2019-02-10T11:47:11.885Z,986.33
2019-02-10T11:48:12.542Z,986.19
2019-02-10T11:49:12.540Z,986.26
2019-02-10T11:50:11.907Z,986.28
2019-02-10T11:51:11.822Z,986.23
2019-02-10T11:52:11.802Z,986.23
2019-02-10T11:53:11.900Z,986.23
2019-02-10T11:54:11.790Z,986.24
2019-02-10T11:55:11.782Z,986.27
2019-02-10T11:56:11.769Z,986.29
2019-02-10T11:57:11.778Z,986.34
2019-02-10T11:58:11.733Z,986.20
2019-02-10T11:59:11.727Z,986.27
2019-02-10T12:00:11.763Z,986.26
2019-02-10T12:01:11.697Z,986.30
2019-02-10T12:02:11.700Z,986.31
2019-02-10T12:03:11.683Z,986.29
2019-02-10T12:04:11.687Z,986.25
2019-02-10T12:05:11.678Z,986.30
2019-02-10T12:06:12.547Z,986.43
2019-02-10T12:07:11.637Z,986.42
2019-02-10T12:08:11.645Z,986.44
2019-02-10T12:09:11.658Z,986.56
2019-02-10T12:10:11.661Z,986.53
2019-02-10T12:11:11.626Z,986.51
2019-02-10T12:12:11.599Z,986.58
2019-02-10T12:13:11.572Z,986.61
2019-02-10T12:14:11.558Z,986.65
2019-02-10T12:15:11.553Z,986.63
2019-02-10T12:16:11.578Z,986.53
2019-02-10T12:17:12.564Z,986.59
2019-02-10T12:18:11.529Z,986.53
2019-02-10T12:19:11.497Z,986.71
2019-02-10T12:20:11.491Z,986.47
2019-02-10T12:21:11.489Z,986.57
2019-02-10T12:22:12.555Z,986.61
2019-02-10T12:23:11.457Z,986.64
2019-02-10T12:24:11.461Z,986.54
2019-02-10T12:25:11.450Z,986.57